sensor_id;sensor_type;location;lat;lon;timestamp;P1;P2;P0
30342;PMS5003;17145;49.902;8.680;2023-04-25T00:01:46;7;6;
30342;PMS5003;17145;49.902;8.680;2023-04-25T00:04:14;6;6;
30342;PMS5003;17145;49.902;8.680;2023-04-25T00:06:41;7;6;
30342;PMS5003;17145;49.902;8.680;2023-04-25T00:09:09;6;5;
30342;PMS5003;17145;49.902;8.680;2023-04-25T00:11:36;7;7;
30342;PMS5003;17145;49.902;8.680;2023-04-25T00:14:04;7;7;
30342;PMS5003;17145;49.902;8.680;2023-04-25T00:16:31;7;7;
30342;PMS5003;17145;49.902;8.680;2023-04-25T00:18:59;6;6;
30342;PMS5003;17145;49.902;8.680;2023-04-25T00:21:26;7;7;
30342;PMS5003;17145;49.902;8.680;2023-04-25T00:23:54;7;7;
30342;PMS5003;17145;49.902;8.680;2023-04-25T00:26:22;6;6;
30342;PMS5003;17145;49.902;8.680;2023-04-25T00:28:49;7;6;
30342;PMS5003;17145;49.902;8.680;2023-04-25T00:31:16;6;6;
30342;PMS5003;17145;49.902;8.680;2023-04-25T00:33:44;7;7;
30342;PMS5003;17145;49.902;8.680;2023-04-25T00:36:11;7;6;
30342;PMS5003;17145;49.902;8.680;2023-04-25T00:38:39;6;6;
30342;PMS5003;17145;49.902;8.680;2023-04-25T00:41:06;6;6;
30342;PMS5003;17145;49.902;8.680;2023-04-25T00:43:34;10;9;
30342;PMS5003;17145;49.902;8.680;2023-04-25T00:46:03;8;8;
30342;PMS5003;17145;49.902;8.680;2023-04-25T00:48:30;6;6;
30342;PMS5003;17145;49.902;8.680;2023-04-25T00:50:58;8;8;
30342;PMS5003;17145;49.902;8.680;2023-04-25T00:53:26;7;7;
30342;PMS5003;17145;49.902;8.680;2023-04-25T00:55:55;9;8;
30342;PMS5003;17145;49.902;8.680;2023-04-25T00:58:23;9;8;
30342;PMS5003;17145;49.902;8.680;2023-04-25T01:00:51;10;8;
30342;PMS5003;17145;49.902;8.680;2023-04-25T01:03:19;13;7;
30342;PMS5003;17145;49.902;8.680;2023-04-25T01:05:47;7;6;
30342;PMS5003;17145;49.902;8.680;2023-04-25T01:08:14;7;7;
30342;PMS5003;17145;49.902;8.680;2023-04-25T01:10:42;9;7;
30342;PMS5003;17145;49.902;8.680;2023-04-25T01:13:09;7;7;
30342;PMS5003;17145;49.902;8.680;2023-04-25T01:15:37;8;7;
30342;PMS5003;17145;49.902;8.680;2023-04-25T01:18:05;7;6;
30342;PMS5003;17145;49.902;8.680;2023-04-25T01:20:33;8;7;
30342;PMS5003;17145;49.902;8.680;2023-04-25T01:23:01;8;8;
30342;PMS5003;17145;49.902;8.680;2023-04-25T01:25:28;8;8;
30342;PMS5003;17145;49.902;8.680;2023-04-25T01:27:56;6;6;
30342;PMS5003;17145;49.902;8.680;2023-04-25T01:30:24;8;6;
30342;PMS5003;17145;49.902;8.680;2023-04-25T01:32:54;7;7;
30342;PMS5003;17145;49.902;8.680;2023-04-25T01:35:22;6;6;
30342;PMS5003;17145;49.902;8.680;2023-04-25T01:37:50;8;7;
30342;PMS5003;17145;49.902;8.680;2023-04-25T01:40:18;8;8;
30342;PMS5003;17145;49.902;8.680;2023-04-25T01:42:48;7;7;
30342;PMS5003;17145;49.902;8.680;2023-04-25T01:45:16;9;7;
30342;PMS5003;17145;49.902;8.680;2023-04-25T01:47:44;6;6;
30342;PMS5003;17145;49.902;8.680;2023-04-25T01:50:11;7;7;
30342;PMS5003;17145;49.902;8.680;2023-04-25T01:52:39;8;8;
30342;PMS5003;17145;49.902;8.680;2023-04-25T01:55:06;12;12;
30342;PMS5003;17145;49.902;8.680;2023-04-25T01:57:34;12;12;
30342;PMS5003;17145;49.902;8.680;2023-04-25T02:00:03;6;6;
30342;PMS5003;17145;49.902;8.680;2023-04-25T02:02:32;7;7;
30342;PMS5003;17145;49.902;8.680;2023-04-25T02:05:00;10;8;
30342;PMS5003;17145;49.902;8.680;2023-04-25T02:07:27;11;10;
30342;PMS5003;17145;49.902;8.680;2023-04-25T02:09:55;8;7;
30342;PMS5003;17145;49.902;8.680;2023-04-25T02:12:22;8;7;
30342;PMS5003;17145;49.902;8.680;2023-04-25T02:14:50;9;8;
30342;PMS5003;17145;49.902;8.680;2023-04-25T02:17:17;8;7;
30342;PMS5003;17145;49.902;8.680;2023-04-25T02:19:44;7;7;
30342;PMS5003;17145;49.902;8.680;2023-04-25T02:22:12;8;7;
30342;PMS5003;17145;49.902;8.680;2023-04-25T02:24:39;6;6;
30342;PMS5003;17145;49.902;8.680;2023-04-25T02:27:07;8;8;
30342;PMS5003;17145;49.902;8.680;2023-04-25T02:29:34;8;8;
30342;PMS5003;17145;49.902;8.680;2023-04-25T02:32:02;7;7;
30342;PMS5003;17145;49.902;8.680;2023-04-25T02:34:29;8;8;
30342;PMS5003;17145;49.902;8.680;2023-04-25T02:36:56;6;6;
30342;PMS5003;17145;49.902;8.680;2023-04-25T02:39:24;9;9;
30342;PMS5003;17145;49.902;8.680;2023-04-25T02:41:51;15;15;
30342;PMS5003;17145;49.902;8.680;2023-04-25T02:44:20;8;8;
30342;PMS5003;17145;49.902;8.680;2023-04-25T02:46:47;8;7;
30342;PMS5003;17145;49.902;8.680;2023-04-25T02:49:14;7;7;
30342;PMS5003;17145;49.902;8.680;2023-04-25T02:51:41;8;7;
30342;PMS5003;17145;49.902;8.680;2023-04-25T02:54:09;7;7;
30342;PMS5003;17145;49.902;8.680;2023-04-25T02:56:36;9;9;
30342;PMS5003;17145;49.902;8.680;2023-04-25T02:59:03;10;10;
30342;PMS5003;17145;49.902;8.680;2023-04-25T03:01:31;8;8;
30342;PMS5003;17145;49.902;8.680;2023-04-25T03:03:59;10;9;
30342;PMS5003;17145;49.902;8.680;2023-04-25T03:06:26;8;8;
30342;PMS5003;17145;49.902;8.680;2023-04-25T03:08:53;8;8;
30342;PMS5003;17145;49.902;8.680;2023-04-25T03:11:21;8;8;
30342;PMS5003;17145;49.902;8.680;2023-04-25T03:13:48;8;8;
30342;PMS5003;17145;49.902;8.680;2023-04-25T03:16:15;8;8;
30342;PMS5003;17145;49.902;8.680;2023-04-25T03:18:43;8;8;
30342;PMS5003;17145;49.902;8.680;2023-04-25T03:21:10;8;8;
30342;PMS5003;17145;49.902;8.680;2023-04-25T03:23:37;8;7;
30342;PMS5003;17145;49.902;8.680;2023-04-25T03:26:05;8;7;
30342;PMS5003;17145;49.902;8.680;2023-04-25T03:28:32;9;7;
30342;PMS5003;17145;49.902;8.680;2023-04-25T03:31:00;14;14;
30342;PMS5003;17145;49.902;8.680;2023-04-25T03:33:27;37;37;
30342;PMS5003;17145;49.902;8.680;2023-04-25T03:35:54;22;22;
30342;PMS5003;17145;49.902;8.680;2023-04-25T03:38:22;15;14;
30342;PMS5003;17145;49.902;8.680;2023-04-25T03:40:49;8;8;
30342;PMS5003;17145;49.902;8.680;2023-04-25T03:43:17;6;6;
30342;PMS5003;17145;49.902;8.680;2023-04-25T03:45:44;8;8;
30342;PMS5003;17145;49.902;8.680;2023-04-25T03:48:12;6;6;
30342;PMS5003;17145;49.902;8.680;2023-04-25T03:50:39;6;6;
30342;PMS5003;17145;49.902;8.680;2023-04-25T03:53:06;8;8;
30342;PMS5003;17145;49.902;8.680;2023-04-25T03:55:34;7;6;
30342;PMS5003;17145;49.902;8.680;2023-04-25T03:58:01;7;7;
30342;PMS5003;17145;49.902;8.680;2023-04-25T04:00:28;22;22;
30342;PMS5003;17145;49.902;8.680;2023-04-25T04:02:56;16;16;
30342;PMS5003;17145;49.902;8.680;2023-04-25T04:05:23;24;24;
30342;PMS5003;17145;49.902;8.680;2023-04-25T04:07:50;23;23;
30342;PMS5003;17145;49.902;8.680;2023-04-25T04:10:18;19;18;
30342;PMS5003;17145;49.902;8.680;2023-04-25T04:12:45;20;20;
30342;PMS5003;17145;49.902;8.680;2023-04-25T04:15:13;14;14;
30342;PMS5003;17145;49.902;8.680;2023-04-25T04:17:40;14;13;
30342;PMS5003;17145;49.902;8.680;2023-04-25T04:20:08;20;20;
30342;PMS5003;17145;49.902;8.680;2023-04-25T04:22:36;43;43;
30342;PMS5003;17145;49.902;8.680;2023-04-25T04:25:03;10;10;
30342;PMS5003;17145;49.902;8.680;2023-04-25T04:27:32;8;7;
30342;PMS5003;17145;49.902;8.680;2023-04-25T04:29:59;5;5;
30342;PMS5003;17145;49.902;8.680;2023-04-25T04:32:27;6;5;
30342;PMS5003;17145;49.902;8.680;2023-04-25T04:34:55;7;7;
30342;PMS5003;17145;49.902;8.680;2023-04-25T04:37:22;6;6;
30342;PMS5003;17145;49.902;8.680;2023-04-25T04:39:49;6;5;
30342;PMS5003;17145;49.902;8.680;2023-04-25T04:42:17;5;5;
30342;PMS5003;17145;49.902;8.680;2023-04-25T04:44:44;6;6;
30342;PMS5003;17145;49.902;8.680;2023-04-25T04:47:12;6;6;
30342;PMS5003;17145;49.902;8.680;2023-04-25T04:49:39;6;5;
30342;PMS5003;17145;49.902;8.680;2023-04-25T04:52:07;7;6;
30342;PMS5003;17145;49.902;8.680;2023-04-25T04:54:34;5;5;
30342;PMS5003;17145;49.902;8.680;2023-04-25T04:57:01;8;7;
30342;PMS5003;17145;49.902;8.680;2023-04-25T04:59:29;7;7;
30342;PMS5003;17145;49.902;8.680;2023-04-25T05:01:56;7;7;
30342;PMS5003;17145;49.902;8.680;2023-04-25T05:04:24;5;5;
30342;PMS5003;17145;49.902;8.680;2023-04-25T05:06:51;7;7;
30342;PMS5003;17145;49.902;8.680;2023-04-25T05:09:19;8;7;
30342;PMS5003;17145;49.902;8.680;2023-04-25T05:11:46;7;6;
30342;PMS5003;17145;49.902;8.680;2023-04-25T05:14:13;8;8;
30342;PMS5003;17145;49.902;8.680;2023-04-25T05:16:41;5;5;
30342;PMS5003;17145;49.902;8.680;2023-04-25T05:19:09;7;7;
30342;PMS5003;17145;49.902;8.680;2023-04-25T05:21:37;7;7;
30342;PMS5003;17145;49.902;8.680;2023-04-25T05:24:04;7;7;
30342;PMS5003;17145;49.902;8.680;2023-04-25T05:26:32;8;7;
30342;PMS5003;17145;49.902;8.680;2023-04-25T05:28:59;8;7;
30342;PMS5003;17145;49.902;8.680;2023-04-25T05:31:26;7;7;
30342;PMS5003;17145;49.902;8.680;2023-04-25T05:33:54;6;6;
30342;PMS5003;17145;49.902;8.680;2023-04-25T05:36:21;6;6;
30342;PMS5003;17145;49.902;8.680;2023-04-25T05:38:48;7;7;
30342;PMS5003;17145;49.902;8.680;2023-04-25T05:41:16;9;7;
30342;PMS5003;17145;49.902;8.680;2023-04-25T05:43:43;9;8;
30342;PMS5003;17145;49.902;8.680;2023-04-25T05:46:11;8;8;
30342;PMS5003;17145;49.902;8.680;2023-04-25T05:48:38;7;6;
30342;PMS5003;17145;49.902;8.680;2023-04-25T05:51:06;7;7;
30342;PMS5003;17145;49.902;8.680;2023-04-25T05:53:33;7;7;
30342;PMS5003;17145;49.902;8.680;2023-04-25T05:56:01;7;7;
30342;PMS5003;17145;49.902;8.680;2023-04-25T05:58:28;10;10;
30342;PMS5003;17145;49.902;8.680;2023-04-25T06:00:56;8;8;
30342;PMS5003;17145;49.902;8.680;2023-04-25T06:03:23;6;5;
30342;PMS5003;17145;49.902;8.680;2023-04-25T06:05:50;8;7;
30342;PMS5003;17145;49.902;8.680;2023-04-25T06:08:18;10;9;
30342;PMS5003;17145;49.902;8.680;2023-04-25T06:10:45;8;8;
30342;PMS5003;17145;49.902;8.680;2023-04-25T06:13:13;8;8;
30342;PMS5003;17145;49.902;8.680;2023-04-25T06:15:40;7;7;
30342;PMS5003;17145;49.902;8.680;2023-04-25T06:18:07;8;8;
30342;PMS5003;17145;49.902;8.680;2023-04-25T06:20:35;6;6;
30342;PMS5003;17145;49.902;8.680;2023-04-25T06:23:02;9;9;
30342;PMS5003;17145;49.902;8.680;2023-04-25T06:25:30;7;6;
30342;PMS5003;17145;49.902;8.680;2023-04-25T06:27:57;6;6;
30342;PMS5003;17145;49.902;8.680;2023-04-25T06:30:25;8;8;
30342;PMS5003;17145;49.902;8.680;2023-04-25T06:32:53;9;8;
30342;PMS5003;17145;49.902;8.680;2023-04-25T06:35:20;8;8;
30342;PMS5003;17145;49.902;8.680;2023-04-25T06:37:47;8;8;
30342;PMS5003;17145;49.902;8.680;2023-04-25T06:40:15;7;7;
30342;PMS5003;17145;49.902;8.680;2023-04-25T06:42:42;7;6;
30342;PMS5003;17145;49.902;8.680;2023-04-25T06:45:10;7;7;
30342;PMS5003;17145;49.902;8.680;2023-04-25T06:47:38;7;6;
30342;PMS5003;17145;49.902;8.680;2023-04-25T06:50:05;6;6;
30342;PMS5003;17145;49.902;8.680;2023-04-25T06:52:33;8;7;
30342;PMS5003;17145;49.902;8.680;2023-04-25T06:55:00;6;6;
30342;PMS5003;17145;49.902;8.680;2023-04-25T06:57:28;7;7;
30342;PMS5003;17145;49.902;8.680;2023-04-25T06:59:55;9;9;
30342;PMS5003;17145;49.902;8.680;2023-04-25T07:02:22;9;9;
30342;PMS5003;17145;49.902;8.680;2023-04-25T07:04:50;12;9;
30342;PMS5003;17145;49.902;8.680;2023-04-25T07:07:17;9;9;
30342;PMS5003;17145;49.902;8.680;2023-04-25T07:09:45;8;8;
30342;PMS5003;17145;49.902;8.680;2023-04-25T07:12:12;7;7;
30342;PMS5003;17145;49.902;8.680;2023-04-25T07:14:39;7;6;
30342;PMS5003;17145;49.902;8.680;2023-04-25T07:17:07;7;7;
30342;PMS5003;17145;49.902;8.680;2023-04-25T07:19:34;7;7;
30342;PMS5003;17145;49.902;8.680;2023-04-25T07:22:01;9;9;
30342;PMS5003;17145;49.902;8.680;2023-04-25T07:24:29;9;9;
30342;PMS5003;17145;49.902;8.680;2023-04-25T07:26:56;8;8;
30342;PMS5003;17145;49.902;8.680;2023-04-25T07:29:24;9;8;
30342;PMS5003;17145;49.902;8.680;2023-04-25T07:31:51;9;7;
30342;PMS5003;17145;49.902;8.680;2023-04-25T07:34:19;8;8;
30342;PMS5003;17145;49.902;8.680;2023-04-25T07:36:46;21;20;
30342;PMS5003;17145;49.902;8.680;2023-04-25T07:39:14;22;21;
30342;PMS5003;17145;49.902;8.680;2023-04-25T07:41:41;22;22;
30342;PMS5003;17145;49.902;8.680;2023-04-25T07:44:08;42;42;
30342;PMS5003;17145;49.902;8.680;2023-04-25T07:46:36;17;17;
30342;PMS5003;17145;49.902;8.680;2023-04-25T07:49:03;31;31;
30342;PMS5003;17145;49.902;8.680;2023-04-25T07:51:31;24;24;
30342;PMS5003;17145;49.902;8.680;2023-04-25T07:53:58;38;37;
30342;PMS5003;17145;49.902;8.680;2023-04-25T07:56:25;35;35;
30342;PMS5003;17145;49.902;8.680;2023-04-25T07:58:53;23;23;
30342;PMS5003;17145;49.902;8.680;2023-04-25T08:01:20;24;24;
30342;PMS5003;17145;49.902;8.680;2023-04-25T08:03:48;40;40;
30342;PMS5003;17145;49.902;8.680;2023-04-25T08:06:15;28;26;
30342;PMS5003;17145;49.902;8.680;2023-04-25T08:08:43;53;53;
30342;PMS5003;17145;49.902;8.680;2023-04-25T08:11:10;14;14;
30342;PMS5003;17145;49.902;8.680;2023-04-25T08:13:38;12;10;
30342;PMS5003;17145;49.902;8.680;2023-04-25T08:16:06;17;16;
30342;PMS5003;17145;49.902;8.680;2023-04-25T08:18:33;13;7;
30342;PMS5003;17145;49.902;8.680;2023-04-25T08:21:00;23;22;
30342;PMS5003;17145;49.902;8.680;2023-04-25T08:23:28;12;12;
30342;PMS5003;17145;49.902;8.680;2023-04-25T08:25:55;14;13;
30342;PMS5003;17145;49.902;8.680;2023-04-25T08:28:22;16;15;
30342;PMS5003;17145;49.902;8.680;2023-04-25T08:30:50;23;23;
30342;PMS5003;17145;49.902;8.680;2023-04-25T08:33:17;17;10;
30342;PMS5003;17145;49.902;8.680;2023-04-25T08:35:45;14;9;
30342;PMS5003;17145;49.902;8.680;2023-04-25T08:38:12;13;13;
30342;PMS5003;17145;49.902;8.680;2023-04-25T08:40:40;8;8;
30342;PMS5003;17145;49.902;8.680;2023-04-25T08:43:10;8;8;
30342;PMS5003;17145;49.902;8.680;2023-04-25T08:45:41;8;8;
30342;PMS5003;17145;49.902;8.680;2023-04-25T08:48:10;8;8;
30342;PMS5003;17145;49.902;8.680;2023-04-25T08:50:40;11;11;
30342;PMS5003;17145;49.902;8.680;2023-04-25T08:53:12;9;9;
30342;PMS5003;17145;49.902;8.680;2023-04-25T08:55:41;9;9;
30342;PMS5003;17145;49.902;8.680;2023-04-25T08:58:09;8;7;
30342;PMS5003;17145;49.902;8.680;2023-04-25T09:00:38;10;9;
30342;PMS5003;17145;49.902;8.680;2023-04-25T09:03:06;9;9;
30342;PMS5003;17145;49.902;8.680;2023-04-25T09:05:33;9;9;
30342;PMS5003;17145;49.902;8.680;2023-04-25T09:08:01;8;8;
30342;PMS5003;17145;49.902;8.680;2023-04-25T09:10:29;10;8;
30342;PMS5003;17145;49.902;8.680;2023-04-25T09:15:29;8;8;
30342;PMS5003;17145;49.902;8.680;2023-04-25T09:17:57;9;9;
30342;PMS5003;17145;49.902;8.680;2023-04-25T09:20:25;9;8;
30342;PMS5003;17145;49.902;8.680;2023-04-25T09:25:28;8;8;
30342;PMS5003;17145;49.902;8.680;2023-04-25T09:28:03;10;10;
30342;PMS5003;17145;49.902;8.680;2023-04-25T09:30:33;11;10;
30342;PMS5003;17145;49.902;8.680;2023-04-25T09:33:04;10;10;
30342;PMS5003;17145;49.902;8.680;2023-04-25T09:35:35;11;11;
30342;PMS5003;17145;49.902;8.680;2023-04-25T09:38:06;10;10;
30342;PMS5003;17145;49.902;8.680;2023-04-25T09:40:38;10;10;
30342;PMS5003;17145;49.902;8.680;2023-04-25T09:43:08;8;8;
30342;PMS5003;17145;49.902;8.680;2023-04-25T09:45:40;9;9;
30342;PMS5003;17145;49.902;8.680;2023-04-25T09:48:08;10;10;
30342;PMS5003;17145;49.902;8.680;2023-04-25T09:50:36;9;9;
30342;PMS5003;17145;49.902;8.680;2023-04-25T09:53:03;12;12;
30342;PMS5003;17145;49.902;8.680;2023-04-25T09:55:31;14;13;
30342;PMS5003;17145;49.902;8.680;2023-04-25T09:58:03;10;9;
30342;PMS5003;17145;49.902;8.680;2023-04-25T10:00:32;12;10;
30342;PMS5003;17145;49.902;8.680;2023-04-25T10:03:01;13;12;
30342;PMS5003;17145;49.902;8.680;2023-04-25T10:05:29;14;12;
30342;PMS5003;17145;49.902;8.680;2023-04-25T10:07:59;9;9;
30342;PMS5003;17145;49.902;8.680;2023-04-25T10:10:29;12;12;
30342;PMS5003;17145;49.902;8.680;2023-04-25T10:12:58;12;12;
30342;PMS5003;17145;49.902;8.680;2023-04-25T10:15:26;10;10;
30342;PMS5003;17145;49.902;8.680;2023-04-25T10:17:54;12;12;
30342;PMS5003;17145;49.902;8.680;2023-04-25T10:20:23;12;10;
30342;PMS5003;17145;49.902;8.680;2023-04-25T10:22:50;10;10;
30342;PMS5003;17145;49.902;8.680;2023-04-25T10:25:22;9;8;
30342;PMS5003;17145;49.902;8.680;2023-04-25T10:27:50;10;10;
30342;PMS5003;17145;49.902;8.680;2023-04-25T10:30:19;8;8;
30342;PMS5003;17145;49.902;8.680;2023-04-25T10:32:46;12;10;
30342;PMS5003;17145;49.902;8.680;2023-04-25T10:35:15;10;9;
30342;PMS5003;17145;49.902;8.680;2023-04-25T10:40:24;9;9;
30342;PMS5003;17145;49.902;8.680;2023-04-25T10:42:53;17;13;
30342;PMS5003;17145;49.902;8.680;2023-04-25T10:45:22;8;8;
30342;PMS5003;17145;49.902;8.680;2023-04-25T10:47:50;9;9;
30342;PMS5003;17145;49.902;8.680;2023-04-25T10:50:17;11;11;
30342;PMS5003;17145;49.902;8.680;2023-04-25T10:52:44;9;9;
30342;PMS5003;17145;49.902;8.680;2023-04-25T10:55:12;8;8;
30342;PMS5003;17145;49.902;8.680;2023-04-25T10:57:40;8;8;
30342;PMS5003;17145;49.902;8.680;2023-04-25T11:00:09;9;9;
30342;PMS5003;17145;49.902;8.680;2023-04-25T11:02:42;12;11;
30342;PMS5003;17145;49.902;8.680;2023-04-25T11:05:19;12;12;
30342;PMS5003;17145;49.902;8.680;2023-04-25T11:07:50;12;12;
30342;PMS5003;17145;49.902;8.680;2023-04-25T11:10:18;12;12;
30342;PMS5003;17145;49.902;8.680;2023-04-25T11:12:45;11;11;
30342;PMS5003;17145;49.902;8.680;2023-04-25T11:15:13;11;9;
30342;PMS5003;17145;49.902;8.680;2023-04-25T11:17:41;11;11;
30342;PMS5003;17145;49.902;8.680;2023-04-25T11:20:08;11;11;
30342;PMS5003;17145;49.902;8.680;2023-04-25T11:22:36;12;11;
30342;PMS5003;17145;49.902;8.680;2023-04-25T11:25:05;11;11;
30342;PMS5003;17145;49.902;8.680;2023-04-25T11:27:33;12;12;
30342;PMS5003;17145;49.902;8.680;2023-04-25T11:30:11;14;13;
30342;PMS5003;17145;49.902;8.680;2023-04-25T11:32:40;9;9;
30342;PMS5003;17145;49.902;8.680;2023-04-25T11:35:08;9;9;
30342;PMS5003;17145;49.902;8.680;2023-04-25T11:37:35;12;11;
30342;PMS5003;17145;49.902;8.680;2023-04-25T11:40:03;13;12;
30342;PMS5003;17145;49.902;8.680;2023-04-25T11:42:32;11;11;
30342;PMS5003;17145;49.902;8.680;2023-04-25T11:45:00;9;9;
30342;PMS5003;17145;49.902;8.680;2023-04-25T11:47:28;11;11;
30342;PMS5003;17145;49.902;8.680;2023-04-25T11:49:57;8;8;
30342;PMS5003;17145;49.902;8.680;2023-04-25T11:55:04;14;13;
30342;PMS5003;17145;49.902;8.680;2023-04-25T11:57:32;9;9;
30342;PMS5003;17145;49.902;8.680;2023-04-25T12:00:06;11;9;
30342;PMS5003;17145;49.902;8.680;2023-04-25T12:02:36;13;13;
30342;PMS5003;17145;49.902;8.680;2023-04-25T12:05:06;12;12;
30342;PMS5003;17145;49.902;8.680;2023-04-25T12:07:34;11;11;
30342;PMS5003;17145;49.902;8.680;2023-04-25T12:10:04;11;11;
30342;PMS5003;17145;49.902;8.680;2023-04-25T12:12:33;11;11;
30342;PMS5003;17145;49.902;8.680;2023-04-25T12:15:10;11;9;
30342;PMS5003;17145;49.902;8.680;2023-04-25T12:17:39;12;12;
30342;PMS5003;17145;49.902;8.680;2023-04-25T12:20:07;9;9;
30342;PMS5003;17145;49.902;8.680;2023-04-25T12:22:36;12;9;
30342;PMS5003;17145;49.902;8.680;2023-04-25T12:25:04;12;9;
30342;PMS5003;17145;49.902;8.680;2023-04-25T12:27:32;12;12;
30342;PMS5003;17145;49.902;8.680;2023-04-25T12:29:59;14;14;
30342;PMS5003;17145;49.902;8.680;2023-04-25T12:32:27;8;8;
30342;PMS5003;17145;49.902;8.680;2023-04-25T12:34:54;12;12;
30342;PMS5003;17145;49.902;8.680;2023-04-25T12:37:22;13;12;
30342;PMS5003;17145;49.902;8.680;2023-04-25T12:39:50;13;13;
30342;PMS5003;17145;49.902;8.680;2023-04-25T12:42:17;9;9;
30342;PMS5003;17145;49.902;8.680;2023-04-25T12:44:44;13;13;
30342;PMS5003;17145;49.902;8.680;2023-04-25T12:47:12;11;11;
30342;PMS5003;17145;49.902;8.680;2023-04-25T12:49:39;12;11;
30342;PMS5003;17145;49.902;8.680;2023-04-25T12:52:07;12;12;
30342;PMS5003;17145;49.902;8.680;2023-04-25T12:54:34;14;14;
30342;PMS5003;17145;49.902;8.680;2023-04-25T12:57:02;12;12;
30342;PMS5003;17145;49.902;8.680;2023-04-25T12:59:29;13;13;
30342;PMS5003;17145;49.902;8.680;2023-04-25T13:01:56;11;11;
30342;PMS5003;17145;49.902;8.680;2023-04-25T13:04:24;10;10;
30342;PMS5003;17145;49.902;8.680;2023-04-25T13:06:51;13;13;
30342;PMS5003;17145;49.902;8.680;2023-04-25T13:09:18;14;13;
30342;PMS5003;17145;49.902;8.680;2023-04-25T13:11:46;11;11;
30342;PMS5003;17145;49.902;8.680;2023-04-25T13:14:13;13;12;
30342;PMS5003;17145;49.902;8.680;2023-04-25T13:16:40;13;13;
30342;PMS5003;17145;49.902;8.680;2023-04-25T13:19:08;13;11;
30342;PMS5003;17145;49.902;8.680;2023-04-25T13:21:36;16;13;
30342;PMS5003;17145;49.902;8.680;2023-04-25T13:24:03;12;12;
30342;PMS5003;17145;49.902;8.680;2023-04-25T13:26:31;12;12;
30342;PMS5003;17145;49.902;8.680;2023-04-25T13:28:58;13;12;
30342;PMS5003;17145;49.902;8.680;2023-04-25T13:31:26;15;14;
30342;PMS5003;17145;49.902;8.680;2023-04-25T13:33:53;14;13;
30342;PMS5003;17145;49.902;8.680;2023-04-25T13:36:21;16;16;
30342;PMS5003;17145;49.902;8.680;2023-04-25T13:38:48;15;15;
30342;PMS5003;17145;49.902;8.680;2023-04-25T13:41:16;13;13;
30342;PMS5003;17145;49.902;8.680;2023-04-25T13:43:43;15;14;
30342;PMS5003;17145;49.902;8.680;2023-04-25T13:46:11;16;16;
30342;PMS5003;17145;49.902;8.680;2023-04-25T13:48:38;15;14;
30342;PMS5003;17145;49.902;8.680;2023-04-25T13:51:05;13;13;
30342;PMS5003;17145;49.902;8.680;2023-04-25T13:53:33;12;12;
30342;PMS5003;17145;49.902;8.680;2023-04-25T13:56:00;14;14;
30342;PMS5003;17145;49.902;8.680;2023-04-25T13:58:28;15;15;
30342;PMS5003;17145;49.902;8.680;2023-04-25T14:00:55;15;15;
30342;PMS5003;17145;49.902;8.680;2023-04-25T14:03:22;14;14;
30342;PMS5003;17145;49.902;8.680;2023-04-25T14:05:50;17;15;
30342;PMS5003;17145;49.902;8.680;2023-04-25T14:08:17;15;14;
30342;PMS5003;17145;49.902;8.680;2023-04-25T14:10:45;16;16;
30342;PMS5003;17145;49.902;8.680;2023-04-25T14:13:12;20;17;
30342;PMS5003;17145;49.902;8.680;2023-04-25T14:15:39;14;14;
30342;PMS5003;17145;49.902;8.680;2023-04-25T14:18:07;16;15;
30342;PMS5003;17145;49.902;8.680;2023-04-25T14:20:34;14;14;
30342;PMS5003;17145;49.902;8.680;2023-04-25T14:23:02;15;14;
30342;PMS5003;17145;49.902;8.680;2023-04-25T14:25:29;16;15;
30342;PMS5003;17145;49.902;8.680;2023-04-25T14:27:57;16;15;
30342;PMS5003;17145;49.902;8.680;2023-04-25T14:30:24;17;16;
30342;PMS5003;17145;49.902;8.680;2023-04-25T14:32:52;15;15;
30342;PMS5003;17145;49.902;8.680;2023-04-25T14:35:19;18;14;
30342;PMS5003;17145;49.902;8.680;2023-04-25T14:37:47;18;16;
30342;PMS5003;17145;49.902;8.680;2023-04-25T14:40:15;16;16;
30342;PMS5003;17145;49.902;8.680;2023-04-25T14:42:42;19;18;
30342;PMS5003;17145;49.902;8.680;2023-04-25T14:45:10;18;16;
30342;PMS5003;17145;49.902;8.680;2023-04-25T14:47:37;16;16;
30342;PMS5003;17145;49.902;8.680;2023-04-25T14:50:06;15;14;
30342;PMS5003;17145;49.902;8.680;2023-04-25T14:52:34;18;18;
30342;PMS5003;17145;49.902;8.680;2023-04-25T14:55:01;20;19;
30342;PMS5003;17145;49.902;8.680;2023-04-25T14:57:29;15;14;
30342;PMS5003;17145;49.902;8.680;2023-04-25T14:59:56;15;15;
30342;PMS5003;17145;49.902;8.680;2023-04-25T15:02:24;16;15;
30342;PMS5003;17145;49.902;8.680;2023-04-25T15:04:52;18;18;
30342;PMS5003;17145;49.902;8.680;2023-04-25T15:07:19;14;14;
30342;PMS5003;17145;49.902;8.680;2023-04-25T15:09:47;15;15;
30342;PMS5003;17145;49.902;8.680;2023-04-25T15:12:15;14;13;
30342;PMS5003;17145;49.902;8.680;2023-04-25T15:14:43;16;16;
30342;PMS5003;17145;49.902;8.680;2023-04-25T15:17:10;14;14;
30342;PMS5003;17145;49.902;8.680;2023-04-25T15:19:37;16;15;
30342;PMS5003;17145;49.902;8.680;2023-04-25T15:22:05;20;15;
30342;PMS5003;17145;49.902;8.680;2023-04-25T15:24:32;16;16;
30342;PMS5003;17145;49.902;8.680;2023-04-25T15:27:00;13;13;
30342;PMS5003;17145;49.902;8.680;2023-04-25T15:29:27;15;14;
30342;PMS5003;17145;49.902;8.680;2023-04-25T15:31:54;13;12;
30342;PMS5003;17145;49.902;8.680;2023-04-25T15:34:22;16;16;
30342;PMS5003;17145;49.902;8.680;2023-04-25T15:36:49;16;14;
30342;PMS5003;17145;49.902;8.680;2023-04-25T15:39:17;14;14;
30342;PMS5003;17145;49.902;8.680;2023-04-25T15:41:44;16;13;
30342;PMS5003;17145;49.902;8.680;2023-04-25T15:44:12;15;14;
30342;PMS5003;17145;49.902;8.680;2023-04-25T15:46:40;13;12;
30342;PMS5003;17145;49.902;8.680;2023-04-25T15:49:07;16;15;
30342;PMS5003;17145;49.902;8.680;2023-04-25T15:51:35;14;13;
30342;PMS5003;17145;49.902;8.680;2023-04-25T15:54:02;13;13;
30342;PMS5003;17145;49.902;8.680;2023-04-25T15:56:30;12;12;
30342;PMS5003;17145;49.902;8.680;2023-04-25T15:58:57;15;15;
30342;PMS5003;17145;49.902;8.680;2023-04-25T16:01:24;14;14;
30342;PMS5003;17145;49.902;8.680;2023-04-25T16:03:52;14;13;
30342;PMS5003;17145;49.902;8.680;2023-04-25T16:06:19;15;15;
30342;PMS5003;17145;49.902;8.680;2023-04-25T16:08:47;16;16;
30342;PMS5003;17145;49.902;8.680;2023-04-25T16:11:14;12;12;
30342;PMS5003;17145;49.902;8.680;2023-04-25T16:13:42;14;13;
30342;PMS5003;17145;49.902;8.680;2023-04-25T16:16:09;11;11;
30342;PMS5003;17145;49.902;8.680;2023-04-25T16:18:37;18;16;
30342;PMS5003;17145;49.902;8.680;2023-04-25T16:21:04;15;15;
30342;PMS5003;17145;49.902;8.680;2023-04-25T16:23:32;16;14;
30342;PMS5003;17145;49.902;8.680;2023-04-25T16:26:00;15;14;
30342;PMS5003;17145;49.902;8.680;2023-04-25T16:28:27;17;15;
30342;PMS5003;17145;49.902;8.680;2023-04-25T16:30:54;14;14;
30342;PMS5003;17145;49.902;8.680;2023-04-25T16:33:22;16;15;
30342;PMS5003;17145;49.902;8.680;2023-04-25T16:35:49;14;13;
30342;PMS5003;17145;49.902;8.680;2023-04-25T16:38:19;14;13;
30342;PMS5003;17145;49.902;8.680;2023-04-25T16:40:46;19;16;
30342;PMS5003;17145;49.902;8.680;2023-04-25T16:43:13;18;18;
30342;PMS5003;17145;49.902;8.680;2023-04-25T16:45:41;16;15;
30342;PMS5003;17145;49.902;8.680;2023-04-25T16:48:08;15;15;